Time;durP1;ratioP1;P1;durP2;ratioP2;P2;SDS_P1;SDS_P2;PMS_P1;PMS_P2;Temp;Humidity;BMP_temperature;BMP_pressure;BME280_temperature;BME280_humidity;BME280_pressure;Samples;Min_cycle;Max_cycle;Signal;HPM_P1;HPM_P2
2023/01/02 00:02:12;;;;;;;8.10;3.00;;;11.60;99.90;;;;;;5105496;28;20084;-74
2023/01/02 00:04:37;;;;;;;6.35;2.85;;;11.60;99.90;;;;;;5111859;28;20038;-72
2023/01/02 00:07:03;;;;;;;7.03;3.30;;;11.50;99.90;;;;;;5112141;28;20023;-73
2023/01/02 00:09:29;;;;;;;7.80;3.05;;;11.50;99.90;;;;;;5098085;28;20123;-73
2023/01/02 00:11:54;;;;;;;6.13;2.90;;;11.50;99.90;;;;;;5106768;28;20402;-73
2023/01/02 00:14:20;;;;;;;6.60;3.17;;;11.50;99.90;;;;;;5110022;28;20054;-74
2023/01/02 00:16:46;;;;;;;9.43;3.72;;;11.50;99.90;;;;;;5106330;28;20119;-74
2023/01/02 00:19:12;;;;;;;8.80;3.53;;;11.50;99.90;;;;;;5110759;28;20031;-74
2023/01/02 00:21:37;;;;;;;8.43;3.25;;;11.50;99.90;;;;;;5089584;28;20028;-74
2023/01/02 00:24:03;;;;;;;11.98;4.03;;;11.50;99.90;;;;;;5088658;28;20024;-75
2023/01/02 00:26:29;;;;;;;9.90;3.47;;;11.40;99.90;;;;;;5105161;28;20043;-72
2023/01/02 00:28:55;;;;;;;7.70;3.60;;;11.40;99.90;;;;;;5089898;28;20019;-72
2023/01/02 00:31:21;;;;;;;12.35;3.97;;;11.40;99.90;;;;;;5093359;28;20035;-72
2023/01/02 00:33:47;;;;;;;12.07;3.30;;;11.40;99.90;;;;;;5076948;28;20368;-72
2023/01/02 00:36:12;;;;;;;5.93;3.55;;;11.40;99.90;;;;;;5086979;28;20024;-73
2023/01/02 00:38:39;;;;;;;8.93;3.35;;;11.40;99.90;;;;;;5071451;28;20126;-73
2023/01/02 00:41:06;;;;;;;12.63;4.05;;;11.40;99.90;;;;;;5093236;28;20503;-73
2023/01/02 00:43:32;;;;;;;8.73;3.28;;;11.30;99.90;;;;;;5092514;28;20165;-73
2023/01/02 00:45:58;;;;;;;9.15;3.00;;;11.30;99.90;;;;;;5089177;28;20082;-74
2023/01/02 00:48:23;;;;;;;8.07;3.58;;;11.30;99.90;;;;;;5090870;28;20052;-74
2023/01/02 00:50:49;;;;;;;10.68;3.47;;;11.20;99.90;;;;;;5105654;28;20030;-74
2023/01/02 00:53:15;;;;;;;8.02;3.70;;;11.20;99.90;;;;;;5088656;28;20108;-74
2023/01/02 00:55:43;;;;;;;7.97;3.58;;;11.20;99.90;;;;;;5107239;28;20101;-74
2023/01/02 00:58:09;;;;;;;8.95;3.78;;;11.20;99.90;;;;;;5103975;28;20038;-74
2023/01/02 01:00:35;;;;;;;7.88;3.53;;;11.20;99.90;;;;;;5108343;28;20028;-73
2023/01/02 01:03:02;;;;;;;8.63;3.47;;;11.20;99.90;;;;;;5112138;28;20035;-73
2023/01/02 01:05:28;;;;;;;6.93;3.70;;;11.20;99.90;;;;;;5092997;28;20019;-73
2023/01/02 01:07:55;;;;;;;11.32;3.83;;;11.20;99.90;;;;;;5101953;28;20114;-73
2023/01/02 01:10:22;;;;;;;10.13;3.60;;;11.10;99.90;;;;;;5107917;28;20027;-74
2023/01/02 01:12:48;;;;;;;9.80;4.45;;;11.10;99.90;;;;;;5088795;28;20038;-72
2023/01/02 01:15:14;;;;;;;9.57;4.13;;;11.10;99.90;;;;;;5071266;28;20428;-72
2023/01/02 01:17:39;;;;;;;7.78;3.65;;;11.10;99.90;;;;;;5085719;28;20032;-72
2023/01/02 01:20:06;;;;;;;9.40;3.78;;;11.10;99.90;;;;;;5090720;28;20103;-72
2023/01/02 01:22:31;;;;;;;7.15;4.07;;;11.10;99.90;;;;;;5110762;28;20172;-72
2023/01/02 01:24:57;;;;;;;9.05;3.70;;;11.10;99.90;;;;;;5092602;28;20487;-74
2023/01/02 01:27:23;;;;;;;9.30;3.90;;;11.10;99.90;;;;;;5072825;28;20031;-73
2023/01/02 01:29:48;;;;;;;9.40;3.70;;;11.10;99.90;;;;;;5111961;28;20372;-73
2023/01/02 01:32:14;;;;;;;10.88;3.92;;;11.10;99.90;;;;;;5092520;27;20495;-73
2023/01/02 01:34:40;;;;;;;6.22;3.85;;;11.20;99.90;;;;;;5109421;28;20020;-71
2023/01/02 01:37:06;;;;;;;7.97;4.55;;;11.10;99.90;;;;;;5088266;28;20039;-73
2023/01/02 01:39:31;;;;;;;9.60;3.72;;;11.20;99.90;;;;;;5092225;28;20031;-72
2023/01/02 01:42:01;;;;;;;11.70;4.30;;;11.10;99.90;;;;;;5091218;28;20046;-72
2023/01/02 01:44:49;;;;;;;6.90;3.70;;;11.10;99.90;;;;;;5092807;28;20023;-73
2023/01/02 01:47:20;;;;;;;8.95;4.45;;;11.10;99.90;;;;;;5073584;28;20028;-72
2023/01/02 01:49:48;;;;;;;9.23;4.10;;;11.10;99.90;;;;;;5090735;28;20023;-72
2023/01/02 01:52:18;;;;;;;7.85;3.70;;;11.10;99.90;;;;;;5109992;28;20567;-72
2023/01/02 01:55:07;;;;;;;6.03;3.60;;;11.10;99.90;;;;;;5111634;28;20463;-72
2023/01/02 01:57:41;;;;;;;9.77;3.97;;;11.10;99.90;;;;;;5088192;28;20020;-72
2023/01/02 02:00:08;;;;;;;9.73;3.63;;;11.10;99.90;;;;;;5108467;28;20032;-72
2023/01/02 02:02:35;;;;;;;4.90;3.15;;;11.10;99.90;;;;;;5089323;27;20076;-72
2023/01/02 02:05:04;;;;;;;9.52;3.88;;;11.10;99.90;;;;;;5108414;28;20023;-72
2023/01/02 02:07:30;;;;;;;9.45;3.90;;;11.10;99.90;;;;;;5106760;28;20024;-71
2023/01/02 02:10:09;;;;;;;10.32;4.63;;;11.10;99.90;;;;;;5109601;28;20024;-72
2023/01/02 02:12:34;;;;;;;6.93;3.70;;;11.10;99.90;;;;;;5089257;28;20088;-72
2023/01/02 02:15:00;;;;;;;6.88;4.13;;;11.10;99.90;;;;;;5087751;28;20016;-72
2023/01/02 02:18:27;;;;;;;8.90;3.97;;;11.00;99.90;;;;;;5089096;28;20495;-71
2023/01/02 02:21:31;;;;;;;7.82;4.28;;;11.10;99.90;;;;;;4989941;28;20033;-72
2023/01/02 02:24:25;;;;;;;7.88;3.75;;;11.10;99.90;;;;;;4962795;28;20156;-71
2023/01/02 02:27:22;;;;;;;11.95;4.55;;;11.10;99.90;;;;;;5072189;28;20019;-72
2023/01/02 02:30:12;;;;;;;8.57;4.35;;;11.00;99.90;;;;;;5086465;27;20030;-72
2023/01/02 02:32:57;;;;;;;7.80;4.25;;;11.00;99.90;;;;;;5089557;28;20024;-72
2023/01/02 02:35:25;;;;;;;9.10;4.55;;;11.00;99.90;;;;;;5090665;28;20049;-72
2023/01/02 02:38:07;;;;;;;10.70;4.55;;;11.00;99.90;;;;;;5107733;27;20031;-72
2023/01/02 02:40:56;;;;;;;9.32;4.35;;;11.00;99.90;;;;;;5090913;28;20758;-72
2023/01/02 02:43:52;;;;;;;8.70;4.28;;;11.00;99.90;;;;;;5090567;28;20023;-72
2023/01/02 02:46:37;;;;;;;8.75;4.07;;;11.00;99.90;;;;;;5103537;28;20027;-74
2023/01/02 02:49:26;;;;;;;12.65;4.10;;;11.00;99.90;;;;;;5094193;28;20062;-74
2023/01/02 02:52:02;;;;;;;9.63;4.35;;;11.10;99.90;;;;;;5073565;28;21109;-74
2023/01/02 02:54:36;;;;;;;9.68;4.53;;;11.10;99.90;;;;;;5107987;28;20032;-73
2023/01/02 02:57:05;;;;;;;10.57;4.55;;;11.10;99.90;;;;;;5091066;28;20050;-74
2023/01/02 02:59:33;;;;;;;8.98;4.35;;;11.10;99.90;;;;;;5087139;28;20027;-73
2023/01/02 03:01:58;;;;;;;8.32;4.40;;;11.10;99.90;;;;;;5085091;28;20107;-73
2023/01/02 03:04:24;;;;;;;9.80;4.10;;;11.10;99.90;;;;;;5089206;28;20175;-73
2023/01/02 03:07:00;;;;;;;9.30;4.82;;;11.10;99.90;;;;;;5089476;28;20028;-73
2023/01/02 03:09:42;;;;;;;10.23;4.60;;;11.10;99.90;;;;;;5088842;28;20516;-73
2023/01/02 03:12:37;;;;;;;10.45;4.55;;;11.10;99.90;;;;;;5089278;28;20106;-73
2023/01/02 03:15:09;;;;;;;7.45;4.18;;;11.20;99.90;;;;;;5088970;28;20019;-73
2023/01/02 03:17:54;;;;;;;8.88;4.63;;;11.10;99.90;;;;;;5103942;27;20110;-74
2023/01/02 03:20:24;;;;;;;6.97;4.22;;;11.10;99.90;;;;;;5074022;28;20039;-72
2023/01/02 03:22:54;;;;;;;9.48;4.40;;;11.10;99.90;;;;;;5106278;28;20023;-72
2023/01/02 03:25:21;;;;;;;8.23;4.78;;;11.20;99.90;;;;;;5090526;28;20040;-72
2023/01/02 03:27:49;;;;;;;8.00;4.03;;;11.20;99.90;;;;;;5105184;28;20112;-72
2023/01/02 03:30:21;;;;;;;6.35;4.05;;;11.20;99.90;;;;;;5105799;28;20027;-73
2023/01/02 03:32:57;;;;;;;;;;;11.20;99.90;;;;;;5106158;27;20506;-73
2023/01/02 03:35:36;;;;;;;13.63;4.47;;;11.20;99.90;;;;;;5092207;28;19904;-74
2023/01/02 03:38:06;;;;;;;10.95;4.38;;;11.20;99.90;;;;;;5088314;28;20051;-73
2023/01/02 03:40:37;;;;;;;8.93;4.43;;;11.20;99.90;;;;;;5090725;28;20148;-72
2023/01/02 03:43:03;;;;;;;9.02;4.50;;;11.20;99.90;;;;;;5089304;27;20457;-72
2023/01/02 03:45:33;;;;;;;9.18;5.03;;;11.20;99.90;;;;;;5109098;28;20114;-72
2023/01/02 03:48:17;;;;;;;12.02;4.63;;;11.20;99.90;;;;;;5107997;28;20045;-73
2023/01/02 03:50:51;;;;;;;10.45;3.80;;;11.20;99.90;;;;;;5089715;28;20059;-74
2023/01/02 03:53:17;;;;;;;9.80;4.70;;;11.30;99.90;;;;;;5120606;28;20072;-73
2023/01/02 03:56:10;;;;;;;10.48;4.68;;;11.20;99.90;;;;;;5099367;28;20452;-75
2023/01/02 03:58:42;;;;;;;11.27;5.78;;;11.30;99.90;;;;;;5073418;28;20047;-75
2023/01/02 04:01:13;;;;;;;13.23;4.65;;;11.30;99.90;;;;;;5091833;28;20047;-74
2023/01/02 04:03:51;;;;;;;8.15;4.30;;;11.40;99.90;;;;;;5071620;28;20024;-73
2023/01/02 04:06:22;;;;;;;12.15;4.90;;;11.40;99.90;;;;;;5103493;28;20687;-73
2023/01/02 04:09:06;;;;;;;11.10;4.38;;;11.50;99.90;;;;;;5089503;28;20028;-73
2023/01/02 04:11:34;;;;;;;9.52;3.85;;;11.50;99.90;;;;;;5119128;28;20028;-73
2023/01/02 04:14:08;;;;;;;9.73;3.90;;;11.60;99.90;;;;;;5110750;28;20035;-71
2023/01/02 04:16:37;;;;;;;8.30;4.28;;;11.70;99.90;;;;;;5087232;28;20109;-72
2023/01/02 04:19:18;;;;;;;11.35;4.65;;;11.70;99.90;;;;;;5107987;28;20036;-72
2023/01/02 04:21:45;;;;;;;;;;;11.80;99.90;;;;;;5090957;28;20034;-71
2023/01/02 04:24:17;;;;;;;13.63;4.75;;;11.90;99.90;;;;;;5072463;28;20358;-71
2023/01/02 04:27:06;;;;;;;10.93;4.25;;;11.90;99.90;;;;;;5087669;28;20035;-71
2023/01/02 04:29:32;;;;;;;12.20;4.25;;;11.90;99.90;;;;;;5090490;28;20046;-71
2023/01/02 04:32:11;;;;;;;11.25;4.63;;;12.00;99.90;;;;;;5125889;28;20027;-72
2023/01/02 04:34:39;;;;;;;13.18;4.30;;;12.00;99.90;;;;;;5092320;28;20103;-72
2023/01/02 04:37:05;;;;;;;8.98;4.10;;;12.00;99.90;;;;;;5104642;27;20042;-71
2023/01/02 04:39:31;;;;;;;11.02;4.03;;;12.10;99.90;;;;;;5107288;28;20349;-72
2023/01/02 04:41:57;;;;;;;11.23;4.50;;;12.10;99.90;;;;;;5105643;28;20113;-71
2023/01/02 04:44:23;;;;;;;13.65;4.28;;;12.10;99.90;;;;;;5086249;28;20032;-71
2023/01/02 04:46:48;;;;;;;10.30;4.38;;;12.10;99.90;;;;;;5086311;28;20180;-72
2023/01/02 04:49:14;;;;;;;11.65;4.55;;;12.10;99.90;;;;;;5088839;28;20092;-71
2023/01/02 04:51:40;;;;;;;12.77;4.47;;;12.10;99.90;;;;;;5086684;28;20056;-72
2023/01/02 04:54:05;;;;;;;13.70;4.70;;;12.10;99.90;;;;;;5107638;28;20027;-72
2023/01/02 04:56:31;;;;;;;12.63;4.35;;;12.20;99.90;;;;;;5108382;28;20115;-72
2023/01/02 04:58:57;;;;;;;11.18;4.10;;;12.20;99.90;;;;;;5090749;28;20556;-72
2023/01/02 05:01:22;;;;;;;8.90;4.25;;;12.20;99.90;;;;;;5091759;28;20028;-71
2023/01/02 05:03:51;;;;;;;9.18;4.30;;;12.30;99.90;;;;;;5111782;28;20596;-71
2023/01/02 05:06:17;;;;;;;10.50;4.32;;;12.30;99.90;;;;;;5107508;27;20487;-71
2023/01/02 05:08:43;;;;;;;10.85;3.95;;;12.30;99.90;;;;;;5091453;28;20024;-72
2023/01/02 05:11:14;;;;;;;14.23;4.68;;;12.30;99.90;;;;;;5110709;28;20032;-73
2023/01/02 05:13:40;;;;;;;7.50;3.60;;;12.30;99.90;;;;;;5111550;28;20020;-72
2023/01/02 05:16:06;;;;;;;9.93;4.13;;;12.30;99.90;;;;;;5091025;28;20050;-72
2023/01/02 05:18:32;;;;;;;11.85;4.15;;;12.30;99.90;;;;;;5108140;28;20036;-72
2023/01/02 05:21:05;;;;;;;13.20;4.13;;;12.20;99.90;;;;;;5094361;28;20122;-72
2023/01/02 05:23:48;;;;;;;12.32;4.60;;;12.30;99.90;;;;;;5090988;28;20080;-72
2023/01/02 05:26:16;;;;;;;9.93;3.90;;;12.20;99.90;;;;;;5108190;28;20118;-74
2023/01/02 05:28:42;;;;;;;10.32;4.57;;;12.20;99.90;;;;;;5089191;28;20030;-72
2023/01/02 05:31:07;;;;;;;9.60;4.03;;;12.20;99.90;;;;;;5087037;28;20020;-72
2023/01/02 05:33:33;;;;;;;7.53;3.80;;;12.20;99.90;;;;;;5110138;28;20034;-73
2023/01/02 05:35:59;;;;;;;11.35;4.30;;;12.20;99.90;;;;;;5109955;28;20023;-73
2023/01/02 05:38:25;;;;;;;12.63;4.25;;;12.20;99.90;;;;;;5109412;28;20402;-73
2023/01/02 05:40:59;;;;;;;14.05;5.10;;;12.20;99.90;;;;;;5091464;28;20028;-72
2023/01/02 05:43:24;;;;;;;15.15;4.40;;;12.20;99.90;;;;;;5091073;28;20088;-73
2023/01/02 05:45:50;;;;;;;12.27;4.70;;;12.20;99.90;;;;;;5088224;28;20440;-73
2023/01/02 05:48:16;;;;;;;9.60;4.30;;;12.20;99.90;;;;;;5108920;28;20032;-73
2023/01/02 05:50:41;;;;;;;11.55;4.95;;;12.20;99.90;;;;;;5090588;28;20039;-73
2023/01/02 05:53:07;;;;;;;15.57;4.55;;;12.20;99.90;;;;;;5071380;28;20054;-72
2023/01/02 05:55:33;;;;;;;11.57;4.65;;;12.10;99.90;;;;;;5106881;28;20032;-72
2023/01/02 05:58:01;;;;;;;11.02;4.68;;;12.10;99.90;;;;;;5087149;28;20281;-72
2023/01/02 06:00:27;;;;;;;10.88;5.25;;;12.10;99.90;;;;;;5110900;28;20024;-70
2023/01/02 06:02:52;;;;;;;11.45;4.85;;;12.20;99.90;;;;;;5111555;28;20031;-72
2023/01/02 06:05:18;;;;;;;14.00;5.00;;;12.10;99.90;;;;;;5090979;28;20457;-72
2023/01/02 06:07:44;;;;;;;14.82;4.32;;;12.20;99.90;;;;;;5105746;28;20512;-73
2023/01/02 06:10:10;;;;;;;11.43;4.90;;;12.20;99.90;;;;;;5106721;28;20096;-72
2023/01/02 06:12:36;;;;;;;9.73;4.55;;;12.20;99.90;;;;;;5091473;28;20019;-73
2023/01/02 06:15:02;;;;;;;11.18;4.70;;;12.20;99.90;;;;;;5100065;28;20016;-73
2023/01/02 06:17:27;;;;;;;11.23;4.63;;;12.10;99.90;;;;;;5103185;28;20471;-73
2023/01/02 06:19:53;;;;;;;11.63;5.60;;;12.10;99.90;;;;;;5108957;28;20031;-72
2023/01/02 06:22:19;;;;;;;14.95;5.07;;;12.10;99.90;;;;;;5090006;28;20031;-72
2023/01/02 06:24:44;;;;;;;11.25;5.13;;;12.10;99.90;;;;;;5085657;28;20064;-71
2023/01/02 06:27:10;;;;;;;12.57;4.82;;;12.10;99.90;;;;;;5109809;28;20510;-72
2023/01/02 06:29:36;;;;;;;11.50;4.65;;;12.10;99.90;;;;;;5110686;28;20054;-72
2023/01/02 06:32:01;;;;;;;10.02;4.85;;;12.10;99.90;;;;;;5091235;28;20561;-72
2023/01/02 06:34:27;;;;;;;11.40;4.65;;;12.10;99.90;;;;;;5071002;28;20024;-72
2023/01/02 06:36:53;;;;;;;13.07;5.50;;;12.10;99.90;;;;;;5107230;28;20031;-72
2023/01/02 06:39:20;;;;;;;15.27;5.68;;;12.10;99.90;;;;;;5105986;28;20149;-73
2023/01/02 06:41:45;;;;;;;17.30;4.75;;;12.10;99.90;;;;;;5109051;28;20024;-72
2023/01/02 06:44:12;;;;;;;16.15;5.50;;;12.10;99.90;;;;;;5069964;28;20038;-72
2023/01/02 06:46:38;;;;;;;16.00;6.17;;;12.10;99.90;;;;;;5039135;28;1331814;-73
2023/01/02 06:49:04;;;;;;;15.25;6.20;;;12.10;99.90;;;;;;5088970;28;20027;-73
2023/01/02 06:51:30;;;;;;;15.13;6.30;;;12.10;99.90;;;;;;5091643;28;20023;-73
2023/01/02 06:53:55;;;;;;;12.90;6.28;;;12.10;99.90;;;;;;5105488;28;20403;-72
2023/01/02 06:56:21;;;;;;;11.25;5.55;;;12.10;99.90;;;;;;5111519;27;20042;-72
2023/01/02 06:58:47;;;;;;;14.40;5.63;;;12.10;99.90;;;;;;5096395;28;20102;-72
2023/01/02 07:01:15;;;;;;;11.18;5.75;;;12.10;99.90;;;;;;5088743;28;20031;-72
2023/01/02 07:03:41;;;;;;;14.85;6.43;;;12.10;99.90;;;;;;5088357;28;20051;-73
2023/01/02 07:06:11;;;;;;;15.02;5.68;;;12.10;99.90;;;;;;5094556;28;20478;-72
2023/01/02 07:08:37;;;;;;;13.45;5.70;;;12.10;99.90;;;;;;5071023;28;20103;-72
2023/01/02 07:11:12;;;;;;;12.77;5.95;;;12.10;99.90;;;;;;5071984;28;20062;-73
2023/01/02 07:13:40;;;;;;;13.25;6.68;;;12.10;99.90;;;;;;5090023;28;20027;-71
2023/01/02 07:16:08;;;;;;;11.60;6.10;;;12.10;99.90;;;;;;5109514;28;20031;-72
2023/01/02 07:18:35;;;;;;;13.90;6.93;;;12.10;99.90;;;;;;5106119;28;20028;-72
2023/01/02 07:21:01;;;;;;;12.95;5.63;;;12.10;99.90;;;;;;5092087;28;20097;-72
2023/01/02 07:23:27;;;;;;;12.75;6.13;;;12.20;99.90;;;;;;5089694;28;20039;-72
2023/01/02 07:25:58;;;;;;;14.07;5.55;;;12.20;99.90;;;;;;5107500;28;20168;-71
2023/01/02 07:28:24;;;;;;;13.70;5.40;;;12.20;99.90;;;;;;5089361;28;20118;-72
2023/01/02 07:30:50;;;;;;;13.93;5.72;;;12.20;99.90;;;;;;5092347;28;20027;-73
2023/01/02 07:33:16;;;;;;;12.25;5.53;;;12.20;99.90;;;;;;5110424;28;20020;-73
2023/01/02 07:35:44;;;;;;;20.25;6.20;;;12.20;99.90;;;;;;5107147;27;20027;-72
2023/01/02 07:38:09;;;;;;;11.35;5.70;;;12.20;99.90;;;;;;5089797;28;20028;-73
2023/01/02 07:40:35;;;;;;;12.95;6.00;;;12.20;99.90;;;;;;5109247;28;20038;-73
2023/01/02 07:43:01;;;;;;;15.68;6.65;;;12.20;99.90;;;;;;5113756;28;20091;-73
2023/01/02 07:45:27;;;;;;;12.10;5.75;;;12.20;99.90;;;;;;5114882;28;20509;-73
2023/01/02 07:47:52;;;;;;;14.68;5.78;;;12.20;99.90;;;;;;5093683;28;20039;-73
2023/01/02 07:50:18;;;;;;;12.13;6.22;;;12.30;99.90;;;;;;5106961;28;20028;-73
2023/01/02 07:52:44;;;;;;;13.25;5.78;;;12.30;99.90;;;;;;5108259;27;20024;-73
2023/01/02 07:55:09;;;;;;;17.52;6.60;;;12.30;99.90;;;;;;5071024;28;20024;-73
2023/01/02 07:57:35;;;;;;;10.32;5.28;;;12.30;99.90;;;;;;5108164;28;20248;-72
2023/01/02 08:00:03;;;;;;;16.42;6.00;;;12.30;99.90;;;;;;5100601;28;20078;-73
2023/01/02 08:02:29;;;;;;;13.88;6.45;;;12.40;99.90;;;;;;5120018;28;20483;-72
2023/01/02 08:04:55;;;;;;;14.80;6.10;;;12.30;99.90;;;;;;5109657;28;20072;-72
2023/01/02 08:07:22;;;;;;;13.65;6.05;;;12.30;99.90;;;;;;5088958;28;20028;-73
2023/01/02 08:09:48;;;;;;;15.32;5.35;;;12.30;99.90;;;;;;5086788;28;20020;-73
2023/01/02 08:12:13;;;;;;;14.13;5.72;;;12.40;99.90;;;;;;5074053;27;20501;-73
2023/01/02 08:14:39;;;;;;;9.70;5.10;;;12.40;99.90;;;;;;5086710;28;20147;-72
2023/01/02 08:17:05;;;;;;;10.98;5.35;;;12.40;99.90;;;;;;5091384;28;20440;-73
2023/01/02 08:19:31;;;;;;;10.93;5.38;;;12.40;99.90;;;;;;5104924;28;20027;-73
2023/01/02 08:21:57;;;;;;;12.43;5.60;;;12.40;99.90;;;;;;5108541;28;20039;-73
2023/01/02 08:24:23;;;;;;;9.63;5.55;;;12.40;99.90;;;;;;5085163;27;20039;-73
2023/01/02 08:26:49;;;;;;;14.75;6.63;;;12.40;99.90;;;;;;5102511;28;20525;-73
2023/01/02 08:29:15;;;;;;;14.80;5.85;;;12.50;99.90;;;;;;5104530;27;20016;-73
2023/01/02 08:31:41;;;;;;;10.52;5.22;;;12.40;99.90;;;;;;5090447;28;20047;-72
2023/01/02 08:34:07;;;;;;;17.83;7.10;;;12.50;99.90;;;;;;5101973;28;20376;-73
2023/01/02 08:36:33;;;;;;;16.45;7.32;;;12.50;99.90;;;;;;5114882;28;20051;-72
2023/01/02 08:38:58;;;;;;;13.00;5.20;;;12.50;99.90;;;;;;5099952;28;20030;-72
2023/01/02 08:41:35;;;;;;;10.05;5.55;;;12.50;99.90;;;;;;5088636;28;20085;-72
2023/01/02 08:44:01;;;;;;;10.55;4.82;;;12.50;99.90;;;;;;5089520;28;20403;-73
2023/01/02 08:46:27;;;;;;;15.50;6.07;;;12.50;99.90;;;;;;5084748;28;20019;-72
2023/01/02 08:48:53;;;;;;;12.88;5.50;;;12.50;99.90;;;;;;5087742;28;20042;-73
2023/01/02 08:51:19;;;;;;;9.23;5.03;;;12.50;99.90;;;;;;5087044;28;20031;-72
2023/01/02 08:53:45;;;;;;;11.20;5.43;;;12.50;99.90;;;;;;5086089;28;20027;-72
2023/01/02 08:56:26;;;;;;;11.20;5.35;;;12.50;99.90;;;;;;5088137;28;20039;-72
2023/01/02 08:58:56;;;;;;;12.75;5.68;;;12.50;99.90;;;;;;5078589;28;20051;-73
2023/01/02 09:01:24;;;;;;;11.75;5.03;;;12.50;99.90;;;;;;5079447;28;20036;-72
2023/01/02 09:03:51;;;;;;;13.23;6.32;;;12.60;99.90;;;;;;5066730;28;20028;-73
2023/01/02 09:06:17;;;;;;;11.63;5.88;;;12.60;99.90;;;;;;5076153;28;20146;-76
2023/01/02 09:08:43;;;;;;;12.07;5.40;;;12.60;99.90;;;;;;5089142;28;20111;-74
2023/01/02 09:11:13;;;;;;;10.77;4.95;;;12.60;99.90;;;;;;5059977;28;20456;-72
2023/01/02 09:13:39;;;;;;;13.70;6.00;;;12.60;99.90;;;;;;5097254;28;20024;-72
2023/01/02 09:16:07;;;;;;;10.07;5.15;;;12.60;99.90;;;;;;5081981;28;20092;-71
2023/01/02 09:18:33;;;;;;;8.98;5.35;;;12.60;99.90;;;;;;5101469;28;20537;-72
2023/01/02 09:20:59;;;;;;;10.18;4.50;;;12.70;99.90;;;;;;5107054;28;20115;-71
2023/01/02 09:23:26;;;;;;;9.90;4.82;;;12.70;99.90;;;;;;5086591;28;20106;-72
2023/01/02 09:25:52;;;;;;;11.75;5.22;;;12.70;99.90;;;;;;5086186;28;20023;-72
2023/01/02 09:28:17;;;;;;;11.95;4.82;;;12.70;99.90;;;;;;5085372;28;20032;-73
2023/01/02 09:30:43;;;;;;;10.70;4.85;;;12.70;99.90;;;;;;5104525;28;20399;-72
2023/01/02 09:33:09;;;;;;;11.60;5.18;;;12.70;99.90;;;;;;5106011;28;20078;-72
2023/01/02 09:35:35;;;;;;;11.05;4.40;;;12.70;99.90;;;;;;5087251;28;20359;-73
2023/01/02 09:38:00;;;;;;;7.28;4.70;;;12.70;99.90;;;;;;5067237;28;20046;-73
2023/01/02 09:40:27;;;;;;;8.70;4.60;;;12.70;99.90;;;;;;5085489;28;20024;-72
2023/01/02 09:42:54;;;;;;;13.27;4.93;;;12.70;99.90;;;;;;5106951;27;20031;-72
2023/01/02 09:45:21;;;;;;;9.75;4.57;;;12.80;99.90;;;;;;5094221;28;20043;-72
2023/01/02 09:47:47;;;;;;;10.30;5.10;;;12.80;99.90;;;;;;5117313;27;20179;-72
2023/01/02 09:50:25;;;;;;;8.88;4.13;;;12.90;99.90;;;;;;5090740;27;20062;-72
2023/01/02 09:53:02;;;;;;;7.97;4.45;;;12.80;99.90;;;;;;5075764;28;20528;-72
2023/01/02 09:55:41;;;;;;;9.52;4.53;;;12.90;99.90;;;;;;5112240;28;20138;-71
2023/01/02 09:58:38;;;;;;;8.30;4.50;;;12.90;99.90;;;;;;5088805;28;20105;-72
2023/01/02 10:01:11;;;;;;;13.20;4.70;;;12.90;99.90;;;;;;5088256;28;20115;-71
2023/01/02 10:04:30;;;;;;;8.73;4.32;;;12.90;99.90;;;;;;5089501;28;20031;-71
2023/01/02 10:07:42;;;;;;;8.15;4.32;;;12.90;99.90;;;;;;5033490;27;20139;-71
2023/01/02 10:10:11;;;;;;;9.48;3.92;;;12.90;99.90;;;;;;5090590;28;20036;-72
2023/01/02 10:13:02;;;;;;;7.82;4.43;;;12.90;99.90;;;;;;5110794;28;20570;-71
2023/01/02 10:15:29;;;;;;;10.80;4.65;;;12.90;99.90;;;;;;5116008;27;20111;-72
2023/01/02 10:17:59;;;;;;;8.43;4.85;;;13.00;99.90;;;;;;5093290;28;20034;-72
2023/01/02 10:20:41;;;;;;;11.18;4.05;;;13.00;99.90;;;;;;5077403;28;20039;-75
2023/01/02 10:23:15;;;;;;;7.97;4.40;;;13.00;99.90;;;;;;5109178;27;20038;-72
2023/01/02 10:25:51;;;;;;;10.18;4.25;;;13.00;99.90;;;;;;5092617;27;20044;-73
2023/01/02 10:28:44;;;;;;;8.50;4.35;;;13.00;99.90;;;;;;5094389;28;20066;-71
2023/01/02 10:31:35;;;;;;;8.70;4.22;;;13.00;99.90;;;;;;5081721;28;20020;-72
2023/01/02 10:34:03;;;;;;;11.40;4.40;;;13.00;99.90;;;;;;5090509;28;20084;-71
2023/01/02 10:36:55;;;;;;;10.30;4.07;;;13.00;99.90;;;;;;5090019;28;20032;-70
2023/01/02 10:39:24;;;;;;;9.07;4.13;;;13.00;99.90;;;;;;5100267;28;20036;-71
2023/01/02 10:41:55;;;;;;;9.60;3.88;;;13.00;99.90;;;;;;5108992;28;20024;-71
2023/01/02 10:44:29;;;;;;;8.63;3.53;;;13.00;99.90;;;;;;5108649;28;20024;-73
2023/01/02 10:46:56;;;;;;;8.95;3.90;;;13.10;99.90;;;;;;5110152;27;20609;-73
2023/01/02 10:49:24;;;;;;;7.97;3.72;;;13.00;99.90;;;;;;5110065;28;20023;-73
2023/01/02 10:52:00;;;;;;;6.95;3.80;;;13.00;99.90;;;;;;5091139;28;20034;-73
2023/01/02 10:54:26;;;;;;;5.30;3.70;;;13.00;99.90;;;;;;5111429;28;20535;-73
2023/01/02 10:56:53;;;;;;;6.80;3.72;;;13.00;99.90;;;;;;5110687;28;20100;-73
2023/01/02 10:59:27;;;;;;;9.10;4.50;;;12.90;99.90;;;;;;5107083;28;20043;-71
2023/01/02 11:01:56;;;;;;;11.85;4.43;;;12.90;99.90;;;;;;5109745;28;20054;-72
2023/01/02 11:04:28;;;;;;;8.43;3.55;;;12.90;99.90;;;;;;5106143;28;20104;-71
2023/01/02 11:07:02;;;;;;;8.10;3.38;;;12.80;99.90;;;;;;5084531;28;20059;-71
2023/01/02 11:09:29;;;;;;;5.05;3.20;;;12.80;99.90;;;;;;5061542;28;20043;-71
2023/01/02 11:12:11;;;;;;;8.10;3.80;;;12.80;99.90;;;;;;5089549;28;20106;-71
2023/01/02 11:14:39;;;;;;;;;;;12.80;99.90;;;;;;5083615;28;20032;-73
2023/01/02 11:17:13;;;;;;;8.73;3.20;;;12.80;99.90;;;;;;5089158;28;19951;-73
2023/01/02 11:19:43;;;;;;;6.38;2.90;;;12.80;99.90;;;;;;5107506;27;20070;-72
2023/01/02 11:22:11;;;;;;;7.37;3.17;;;12.80;99.90;;;;;;5086375;28;20047;-71
2023/01/02 11:25:00;;;;;;;9.52;3.45;;;12.80;99.90;;;;;;5094260;28;20028;-73
2023/01/02 11:27:44;;;;;;;5.60;2.72;;;12.80;99.90;;;;;;5086353;28;20101;-72
2023/01/02 11:30:35;;;;;;;8.25;2.90;;;12.60;99.90;;;;;;5071143;28;20081;-71
2023/01/02 11:33:23;;;;;;;4.63;2.42;;;12.50;99.90;;;;;;5093691;28;20054;-72
2023/01/02 11:36:11;;;;;;;3.22;2.25;;;12.40;99.90;;;;;;5066442;28;20015;-73
2023/01/02 11:38:45;;;;;;;4.78;1.70;;;12.30;99.90;;;;;;5082912;28;20483;-72
2023/01/02 11:44:30;;;;;;;1.17;0.77;;;12.10;99.90;;;;;;5100584;27;20054;-72
2023/01/02 11:46:58;;;;;;;1.45;0.63;;;11.90;99.90;;;;;;5068489;28;20503;-73
2023/01/02 11:49:32;;;;;;;0.90;0.70;;;11.70;99.90;;;;;;5069935;28;20915;-73
2023/01/02 11:52:03;;;;;;;1.35;0.60;;;11.60;99.90;;;;;;5104555;28;20395;-73
2023/01/02 11:54:37;;;;;;;1.33;0.80;;;11.40;99.90;;;;;;5070561;28;20049;-75
2023/01/02 11:57:04;;;;;;;0.57;0.47;;;11.30;99.90;;;;;;5083739;28;20077;-74
2023/01/02 11:59:48;;;;;;;1.17;0.65;;;11.20;99.90;;;;;;5104183;28;20019;-73
2023/01/02 12:02:19;;;;;;;0.82;0.50;;;11.20;99.90;;;;;;5088583;27;20042;-74
2023/01/02 12:04:45;;;;;;;1.40;0.90;;;11.10;99.90;;;;;;5087494;28;20499;-73
2023/01/02 12:07:45;;;;;;;1.42;0.75;;;11.10;99.90;;;;;;5090532;28;20062;-75
2023/01/02 12:10:26;;;;;;;1.42;0.77;;;11.10;99.90;;;;;;5074688;28;20043;-75
2023/01/02 12:13:13;;;;;;;1.27;0.77;;;11.00;99.90;;;;;;5086186;28;20031;-73
2023/01/02 12:16:03;;;;;;;2.08;1.00;;;11.00;99.90;;;;;;5077314;28;20049;-73
2023/01/02 12:19:03;;;;;;;0.73;0.70;;;10.90;99.90;;;;;;5093692;28;20027;-71
2023/01/02 12:21:53;;;;;;;2.80;1.15;;;10.90;99.90;;;;;;5086756;28;20048;-74
2023/01/02 12:24:34;;;;;;;1.38;1.05;;;10.90;99.90;;;;;;5102385;28;20029;-72
2023/01/02 12:27:28;;;;;;;2.05;1.20;;;10.90;99.90;;;;;;5070682;28;20038;-74
2023/01/02 12:30:12;;;;;;;1.40;1.08;;;10.80;99.90;;;;;;5103092;28;20032;-73
2023/01/02 12:33:05;;;;;;;3.08;0.90;;;10.90;99.90;;;;;;5095395;28;20024;-73
2023/01/02 12:35:46;;;;;;;1.30;0.73;;;10.90;99.90;;;;;;5087161;28;20024;-73
2023/01/02 12:38:47;;;;;;;1.95;0.60;;;10.80;99.90;;;;;;5096160;28;20097;-73
2023/01/02 12:41:17;;;;;;;1.90;1.23;;;10.60;99.90;;;;;;5081213;28;20050;-73
2023/01/02 12:44:20;;;;;;;2.85;1.10;;;10.60;99.90;;;;;;5101997;28;20062;-71
2023/01/02 12:47:21;;;;;;;2.08;0.90;;;10.60;99.90;;;;;;5018024;28;20082;-71
2023/01/02 12:50:02;;;;;;;2.70;1.15;;;10.50;99.90;;;;;;5076775;28;20024;-71
2023/01/02 12:52:41;;;;;;;2.25;1.30;;;10.50;99.90;;;;;;5075318;28;20046;-71
2023/01/02 12:55:39;;;;;;;1.50;0.88;;;10.40;99.90;;;;;;5103226;28;20474;-72
2023/01/02 12:58:53;;;;;;;2.78;1.50;;;10.50;99.90;;;;;;5074312;28;20355;-73
2023/01/02 13:01:28;;;;;;;2.28;1.05;;;10.50;99.90;;;;;;5062815;28;20716;-74
2023/01/02 13:04:19;;;;;;;2.33;1.00;;;10.40;99.90;;;;;;5104693;28;20065;-75
2023/01/02 13:06:57;;;;;;;2.83;1.02;;;10.40;99.90;;;;;;5105719;28;20171;-73
2023/01/02 13:09:32;;;;;;;3.85;1.20;;;10.40;99.90;;;;;;5099417;28;20034;-73
2023/01/02 13:12:13;;;;;;;1.65;1.10;;;10.50;99.90;;;;;;5099601;28;20028;-75